createdAt,value
2023-01-12T00:01:34.272Z,1.90
2023-01-12T00:04:03.138Z,2.10
2023-01-12T00:06:32.330Z,1.57
2023-01-12T00:09:00.127Z,1.83
2023-01-12T00:11:27.408Z,1.67
2023-01-12T00:13:54.917Z,1.87
2023-01-12T00:16:38.083Z,1.77
2023-01-12T00:19:13.249Z,1.80
2023-01-12T00:22:06.288Z,1.70
2023-01-12T00:24:35.003Z,1.83
2023-01-12T00:27:04.321Z,1.73
2023-01-12T00:29:32.026Z,1.80
2023-01-12T00:32:00.767Z,1.50
2023-01-12T00:34:29.691Z,1.80
2023-01-12T00:36:57.517Z,1.70
2023-01-12T00:39:24.793Z,1.80
2023-01-12T00:42:10.629Z,1.70
2023-01-12T00:44:56.932Z,1.90
2023-01-12T00:47:24.366Z,1.73
2023-01-12T00:49:51.682Z,1.50
2023-01-12T00:52:35.241Z,2.00
2023-01-12T00:55:02.545Z,1.80
2023-01-12T00:57:29.949Z,1.90
2023-01-12T01:00:00.193Z,2.10
2023-01-12T01:02:28.183Z,1.93
2023-01-12T01:04:55.644Z,2.30
2023-01-12T01:07:23.045Z,2.27
2023-01-12T01:09:50.823Z,1.77
2023-01-12T01:12:18.642Z,2.13
2023-01-12T01:14:45.997Z,2.00
2023-01-12T01:17:13.249Z,2.10
2023-01-12T01:19:40.605Z,2.00
2023-01-12T01:22:07.919Z,2.30
2023-01-12T01:24:35.384Z,1.90
2023-01-12T01:27:02.640Z,2.20
2023-01-12T01:29:29.913Z,2.40
2023-01-12T01:31:57.183Z,2.03
2023-01-12T01:34:24.608Z,2.50
2023-01-12T01:36:52.198Z,2.87
2023-01-12T01:39:19.607Z,1.93
2023-01-12T01:41:48.172Z,2.37
2023-01-12T01:44:31.024Z,2.60
2023-01-12T01:47:05.158Z,2.57
2023-01-12T01:49:42.026Z,2.20
2023-01-12T01:52:18.929Z,2.10
2023-01-12T01:54:49.188Z,2.63
2023-01-12T01:57:16.801Z,2.40
2023-01-12T01:59:47.716Z,2.17
2023-01-12T02:02:15.871Z,2.27
2023-01-12T02:04:43.769Z,2.00
2023-01-12T02:07:11.289Z,2.27
2023-01-12T02:09:39.196Z,2.13
2023-01-12T02:12:25.651Z,2.30
2023-01-12T02:15:12.213Z,1.90
2023-01-12T02:17:56.156Z,2.37
2023-01-12T02:20:26.694Z,1.87
2023-01-12T02:23:00.255Z,2.40
2023-01-12T02:26:06.171Z,1.93
2023-01-12T02:28:36.109Z,2.20
2023-01-12T02:31:19.413Z,2.40
2023-01-12T02:33:59.894Z,1.87
2023-01-12T02:36:33.383Z,2.23
2023-01-12T02:39:12.945Z,2.13
2023-01-12T02:42:17.882Z,2.53
2023-01-12T02:45:03.924Z,2.00
2023-01-12T02:47:49.855Z,2.50
2023-01-12T02:50:30.408Z,2.40
2023-01-12T02:53:02.805Z,2.10
2023-01-12T02:55:31.358Z,2.50
2023-01-12T02:57:59.429Z,2.40
2023-01-12T03:00:27.317Z,2.50
2023-01-12T03:02:54.651Z,2.17
2023-01-12T03:05:22.390Z,2.13
2023-01-12T03:07:51.584Z,2.20
2023-01-12T03:10:31.774Z,2.30
2023-01-12T03:13:00.100Z,2.30
2023-01-12T03:15:28.995Z,2.90
2023-01-12T03:18:00.542Z,1.93
2023-01-12T03:20:29.714Z,2.67
2023-01-12T03:23:07.447Z,2.77
2023-01-12T03:25:35.292Z,2.20
2023-01-12T03:28:05.455Z,2.03
2023-01-12T03:30:36.906Z,1.97
2023-01-12T03:33:04.988Z,2.60
2023-01-12T03:35:34.833Z,2.60
2023-01-12T03:38:22.361Z,2.73
2023-01-12T03:40:53.141Z,2.80
2023-01-12T03:43:27.868Z,2.83
2023-01-12T03:46:06.375Z,2.17
2023-01-12T03:48:44.987Z,2.47
2023-01-12T03:51:14.929Z,2.23
2023-01-12T03:53:44.001Z,2.33
2023-01-12T03:56:13.311Z,2.07
2023-01-12T03:58:41.013Z,2.10
2023-01-12T04:01:08.478Z,2.30
2023-01-12T04:03:36.061Z,3.43
2023-01-12T04:06:03.500Z,2.20
2023-01-12T04:08:31.736Z,2.20
2023-01-12T04:10:58.988Z,2.53
2023-01-12T04:13:26.604Z,2.40
2023-01-12T04:15:55.075Z,2.73
2023-01-12T04:18:22.357Z,2.37
2023-01-12T04:20:49.624Z,2.40
2023-01-12T04:23:17.379Z,2.23
2023-01-12T04:25:49.842Z,2.00
2023-01-12T04:28:17.935Z,2.33
2023-01-12T04:30:45.211Z,2.60
2023-01-12T04:33:12.685Z,2.37
2023-01-12T04:35:39.991Z,2.00
2023-01-12T04:38:08.123Z,2.53
2023-01-12T04:40:35.474Z,3.67
2023-01-12T04:43:08.482Z,3.07
2023-01-12T04:45:38.876Z,3.00
2023-01-12T04:48:11.306Z,2.30
2023-01-12T04:50:39.392Z,3.53
2023-01-12T04:53:08.139Z,4.13
2023-01-12T04:55:39.345Z,3.43
2023-01-12T04:58:07.281Z,2.70
2023-01-12T05:00:34.567Z,2.90
2023-01-12T05:03:02.659Z,3.20
2023-01-12T05:05:34.147Z,3.17
2023-01-12T05:08:21.017Z,3.00
2023-01-12T05:10:51.783Z,2.80
2023-01-12T05:13:19.113Z,2.60
2023-01-12T05:15:47.567Z,2.70
2023-01-12T05:18:15.592Z,2.67
2023-01-12T05:20:42.824Z,2.80
2023-01-12T05:23:10.258Z,2.67
2023-01-12T05:25:37.636Z,2.87
2023-01-12T05:28:05.138Z,3.40
2023-01-12T05:30:33.542Z,2.90
2023-01-12T05:33:01.068Z,5.00
2023-01-12T05:35:28.328Z,3.73
2023-01-12T05:37:56.707Z,3.63
2023-01-12T05:40:24.582Z,2.57
2023-01-12T05:43:11.792Z,2.57
2023-01-12T05:45:39.385Z,3.70
2023-01-12T05:48:06.925Z,2.13
2023-01-12T05:50:34.175Z,2.20
2023-01-12T05:53:01.445Z,2.50
2023-01-12T05:55:31.443Z,2.10
2023-01-12T05:57:59.939Z,2.23
2023-01-12T06:00:27.287Z,2.50
2023-01-12T06:02:54.792Z,2.40
2023-01-12T06:05:22.109Z,2.43
2023-01-12T06:07:49.607Z,2.37
2023-01-12T06:10:16.977Z,1.97
2023-01-12T06:13:03.556Z,1.83
2023-01-12T06:15:32.960Z,2.17
2023-01-12T06:18:00.315Z,2.20
2023-01-12T06:20:27.624Z,1.77
2023-01-12T06:22:55.769Z,2.23
2023-01-12T06:25:23.043Z,2.03
2023-01-12T06:27:50.258Z,1.97
2023-01-12T06:30:17.692Z,1.97
2023-01-12T06:32:44.954Z,2.00
2023-01-12T06:35:19.078Z,3.33
2023-01-12T06:37:48.174Z,3.10
2023-01-12T06:40:15.764Z,2.53
2023-01-12T06:42:43.116Z,3.27
2023-01-12T06:45:10.828Z,3.33
2023-01-12T06:47:59.786Z,2.40
2023-01-12T06:50:27.136Z,2.50
2023-01-12T06:52:55.795Z,3.40
2023-01-12T06:55:23.441Z,1.87
2023-01-12T06:57:50.872Z,4.27
2023-01-12T07:00:18.314Z,4.20
2023-01-12T07:02:45.612Z,3.23
2023-01-12T07:05:12.964Z,2.10
2023-01-12T07:07:40.723Z,2.30
2023-01-12T07:10:08.275Z,2.20
2023-01-12T07:12:35.702Z,2.40
2023-01-12T07:15:04.080Z,2.30
2023-01-12T07:17:31.651Z,2.50
2023-01-12T07:19:58.861Z,2.60
2023-01-12T07:22:27.313Z,2.53
2023-01-12T07:24:56.521Z,2.23
2023-01-12T07:27:25.252Z,2.03
2023-01-12T07:29:52.748Z,2.30
2023-01-12T07:32:20.168Z,2.60
2023-01-12T07:34:47.402Z,1.87
2023-01-12T07:37:14.761Z,1.90
2023-01-12T07:39:42.481Z,2.60
2023-01-12T07:42:25.545Z,2.17
2023-01-12T07:44:53.124Z,2.40
2023-01-12T07:47:20.748Z,2.20
2023-01-12T07:49:48.175Z,1.80
2023-01-12T07:52:15.614Z,2.33
2023-01-12T07:54:42.981Z,1.80
2023-01-12T07:57:12.266Z,2.00
2023-01-12T07:59:39.686Z,2.10
2023-01-12T08:02:07.925Z,1.90
2023-01-12T08:04:35.462Z,1.90
2023-01-12T08:07:03.323Z,2.10
2023-01-12T08:09:30.598Z,1.93
2023-01-12T08:11:58.217Z,2.23
2023-01-12T08:14:30.711Z,2.00
2023-01-12T08:17:06.089Z,2.10
2023-01-12T08:19:38.838Z,1.93
2023-01-12T08:22:08.788Z,2.33
2023-01-12T08:24:37.439Z,1.70
2023-01-12T08:27:06.418Z,1.97
2023-01-12T08:29:40.220Z,1.77
2023-01-12T08:34:44.722Z,2.00
2023-01-12T08:37:13.603Z,1.87
2023-01-12T08:39:40.936Z,1.70
2023-01-12T08:42:08.324Z,1.70
2023-01-12T08:44:36.384Z,1.80
2023-01-12T08:47:04.522Z,2.63
2023-01-12T08:49:32.986Z,1.70
2023-01-12T08:52:00.568Z,2.17
2023-01-12T08:54:28.154Z,2.07
2023-01-12T08:56:55.792Z,1.83
2023-01-12T08:59:23.183Z,1.87
2023-01-12T09:01:50.628Z,1.67
2023-01-12T09:04:18.129Z,2.10
2023-01-12T09:06:46.704Z,2.00
2023-01-12T09:09:15.687Z,1.77
2023-01-12T09:11:43.792Z,1.47
2023-01-12T09:14:14.922Z,2.30
2023-01-12T09:16:42.781Z,1.93
2023-01-12T09:19:11.152Z,1.80
2023-01-12T09:21:39.656Z,1.63
2023-01-12T09:24:07.270Z,1.57
2023-01-12T09:26:37.861Z,1.60
2023-01-12T09:29:05.237Z,1.60
2023-01-12T09:31:33.277Z,1.60
2023-01-12T09:34:01.183Z,1.60
2023-01-12T09:36:29.329Z,1.50
2023-01-12T09:38:57.359Z,1.47
2023-01-12T09:42:00.682Z,1.50
2023-01-12T09:45:09.591Z,1.40
2023-01-12T09:47:36.862Z,1.50
2023-01-12T09:50:15.852Z,1.57
2023-01-12T09:52:53.177Z,1.70
2023-01-12T09:55:21.929Z,1.50
2023-01-12T09:57:49.167Z,1.73
2023-01-12T10:00:18.306Z,1.73
2023-01-12T10:02:48.204Z,1.47
2023-01-12T10:05:42.149Z,1.50
2023-01-12T10:08:23.554Z,1.70
2023-01-12T10:10:59.351Z,1.57
2023-01-12T10:13:29.274Z,1.60
2023-01-12T10:16:00.771Z,1.67
2023-01-12T10:18:31.042Z,1.70
2023-01-12T10:20:59.365Z,2.03
2023-01-12T10:23:28.167Z,2.00
2023-01-12T10:26:08.355Z,1.57
2023-01-12T10:28:37.067Z,1.70
2023-01-12T10:31:04.997Z,1.60
2023-01-12T10:33:34.386Z,1.60
2023-01-12T10:36:03.858Z,2.10
2023-01-12T10:38:37.329Z,1.57
2023-01-12T10:41:10.858Z,1.80
2023-01-12T10:43:38.439Z,1.50
2023-01-12T10:46:09.105Z,1.87
2023-01-12T10:48:40.239Z,1.70
2023-01-12T10:51:09.035Z,3.13
2023-01-12T10:53:44.833Z,1.90
2023-01-12T10:56:24.359Z,1.43
2023-01-12T10:59:10.801Z,1.50
2023-01-12T11:01:48.933Z,1.40
2023-01-12T11:04:19.890Z,1.53
2023-01-12T11:06:56.990Z,1.43
2023-01-12T11:09:28.663Z,2.03
2023-01-12T11:11:57.245Z,1.60
2023-01-12T11:14:32.468Z,1.63
2023-01-12T11:17:18.251Z,1.60
2023-01-12T11:19:46.616Z,1.60
2023-01-12T11:22:17.930Z,2.00
2023-01-12T11:24:53.110Z,1.53
2023-01-12T11:27:27.723Z,1.87
2023-01-12T11:29:55.031Z,1.70
2023-01-12T11:32:34.862Z,1.60
2023-01-12T11:35:07.625Z,1.43
2023-01-12T11:37:36.699Z,1.53
2023-01-12T11:40:08.248Z,2.00
2023-01-12T11:42:56.147Z,1.60
2023-01-12T11:45:26.518Z,1.50
2023-01-12T11:47:56.161Z,1.77
2023-01-12T11:50:26.811Z,1.60
2023-01-12T11:52:55.852Z,2.47
2023-01-12T11:55:31.039Z,2.27
2023-01-12T11:58:01.387Z,2.97
2023-01-12T12:00:33.398Z,3.80
2023-01-12T12:03:00.670Z,2.97
2023-01-12T12:05:34.194Z,4.20
2023-01-12T12:08:12.863Z,2.60
2023-01-12T12:10:59.830Z,1.93
2023-01-12T12:13:29.663Z,1.63
2023-01-12T12:16:06.251Z,1.20
2023-01-12T12:18:39.947Z,1.20
2023-01-12T12:21:22.349Z,1.37
2023-01-12T12:23:53.094Z,1.30
2023-01-12T12:26:25.145Z,1.20
2023-01-12T12:29:15.185Z,1.20
2023-01-12T12:31:42.568Z,1.30
2023-01-12T12:34:13.087Z,1.10
2023-01-12T12:36:59.735Z,1.00
2023-01-12T12:39:45.844Z,1.27
2023-01-12T12:42:46.752Z,1.03
2023-01-12T12:45:17.074Z,1.40
2023-01-12T12:47:54.184Z,1.00
2023-01-12T12:50:21.531Z,1.00
2023-01-12T12:52:53.084Z,0.93
2023-01-12T12:55:20.350Z,1.00
2023-01-12T12:58:01.438Z,1.13
2023-01-12T13:00:30.949Z,0.93
2023-01-12T13:02:59.995Z,1.10
2023-01-12T13:05:47.471Z,1.00
2023-01-12T13:08:19.824Z,1.17
2023-01-12T13:10:55.582Z,0.90
2023-01-12T13:13:31.254Z,1.20
2023-01-12T13:16:18.511Z,1.23
2023-01-12T13:18:52.462Z,1.20
2023-01-12T13:21:43.044Z,1.10
2023-01-12T13:24:10.309Z,1.10
2023-01-12T13:26:39.450Z,1.17
2023-01-12T13:29:25.145Z,1.10
2023-01-12T13:31:53.550Z,1.10
2023-01-12T13:34:32.960Z,1.23
2023-01-12T13:37:06.352Z,1.17
2023-01-12T13:39:36.244Z,0.90
2023-01-12T13:42:23.123Z,1.00
2023-01-12T13:44:50.508Z,0.90
2023-01-12T13:47:23.877Z,1.03
2023-01-12T13:49:53.908Z,1.00
2023-01-12T13:52:35.743Z,1.30
2023-01-12T13:55:03.704Z,1.10
2023-01-12T13:57:31.984Z,1.13
2023-01-12T14:00:14.788Z,1.10
2023-01-12T14:02:42.348Z,1.20
2023-01-12T14:05:19.061Z,0.90
2023-01-12T14:07:58.448Z,1.10
2023-01-12T14:10:32.610Z,1.17
2023-01-12T14:13:14.338Z,0.97
2023-01-12T14:16:01.504Z,1.00
2023-01-12T14:18:45.399Z,1.07
2023-01-12T14:21:21.935Z,1.00
2023-01-12T14:23:49.206Z,1.30
2023-01-12T14:26:22.691Z,1.10
2023-01-12T14:28:51.170Z,1.10
2023-01-12T14:31:27.637Z,1.20
2023-01-12T14:33:56.958Z,1.00
2023-01-12T14:36:26.861Z,1.03
2023-01-12T14:38:55.299Z,1.40
2023-01-12T14:41:56.599Z,1.03
2023-01-12T14:44:46.102Z,0.90
2023-01-12T14:47:24.152Z,1.00
2023-01-12T14:49:51.597Z,0.97
2023-01-12T14:52:32.321Z,0.90
2023-01-12T14:55:18.529Z,1.20
2023-01-12T14:57:51.515Z,0.93
2023-01-12T15:00:23.693Z,1.00
2023-01-12T15:02:54.699Z,1.20
2023-01-12T15:05:33.360Z,1.00
2023-01-12T15:08:02.537Z,1.20
2023-01-12T15:10:32.434Z,0.90
2023-01-12T15:13:18.053Z,0.90
2023-01-12T15:16:03.786Z,1.10
2023-01-12T15:18:50.563Z,0.97
2023-01-12T15:21:37.351Z,1.00
2023-01-12T15:24:31.994Z,1.10
2023-01-12T15:27:06.440Z,1.10
2023-01-12T15:29:34.294Z,1.10
2023-01-12T15:32:02.084Z,1.00
2023-01-12T15:34:29.847Z,1.00
2023-01-12T15:36:57.164Z,0.97
2023-01-12T15:39:24.519Z,1.00
2023-01-12T15:42:10.604Z,1.00
2023-01-12T15:44:38.860Z,1.10
2023-01-12T15:47:07.743Z,1.00
2023-01-12T15:49:35.236Z,1.17
2023-01-12T15:52:02.591Z,1.20
2023-01-12T15:54:29.828Z,1.20
2023-01-12T15:56:59.596Z,1.40
2023-01-12T15:59:27.080Z,1.10
2023-01-12T16:01:54.443Z,1.00
2023-01-12T16:07:10.475Z,1.73
2023-01-12T16:09:37.847Z,1.20
2023-01-12T16:12:05.409Z,1.10
2023-01-12T16:14:32.682Z,1.10
2023-01-12T16:16:59.977Z,1.50
2023-01-12T16:19:28.385Z,2.00
2023-01-12T16:21:55.846Z,4.30
2023-01-12T16:24:26.756Z,1.50
2023-01-12T16:26:54.414Z,1.10
2023-01-12T16:29:23.872Z,1.47
2023-01-12T16:31:51.459Z,1.30
2023-01-12T16:34:22.758Z,1.30
2023-01-12T16:36:50.438Z,1.10
2023-01-12T16:39:17.735Z,1.20
2023-01-12T16:41:45.463Z,1.10
2023-01-12T16:44:12.861Z,1.20
2023-01-12T16:46:40.088Z,1.27
2023-01-12T16:49:07.429Z,1.33
2023-01-12T16:51:35.161Z,1.23
2023-01-12T16:54:04.739Z,1.80
2023-01-12T16:56:32.800Z,1.50
2023-01-12T16:59:00.016Z,1.87
2023-01-12T17:01:27.633Z,1.70
2023-01-12T17:03:57.941Z,1.90
2023-01-12T17:06:26.564Z,1.83
2023-01-12T17:08:53.925Z,1.30
2023-01-12T17:11:23.821Z,1.10
2023-01-12T17:13:52.531Z,1.10
2023-01-12T17:16:20.541Z,1.20
2023-01-12T17:18:50.662Z,1.17
2023-01-12T17:21:18.978Z,1.70
2023-01-12T17:23:46.723Z,1.37
2023-01-12T17:26:18.197Z,1.23
2023-01-12T17:28:46.665Z,2.07
2023-01-12T17:31:15.342Z,1.13
2023-01-12T17:33:43.412Z,1.30
2023-01-12T17:36:11.621Z,1.70
2023-01-12T17:38:40.195Z,1.30
2023-01-12T17:41:35.119Z,1.10
2023-01-12T17:44:03.397Z,1.20
2023-01-12T17:46:30.996Z,1.30
2023-01-12T17:48:59.266Z,1.70
2023-01-12T17:51:26.707Z,1.27
2023-01-12T17:53:54.800Z,0.93
2023-01-12T17:56:22.410Z,1.30
2023-01-12T17:58:53.473Z,1.50
2023-01-12T18:01:21.433Z,1.30
2023-01-12T18:03:48.975Z,1.30
2023-01-12T18:06:25.871Z,1.40
2023-01-12T18:08:56.428Z,1.20
2023-01-12T18:11:24.040Z,1.43
2023-01-12T18:13:51.406Z,1.30
2023-01-12T18:16:18.734Z,1.20
2023-01-12T18:18:46.279Z,1.20
2023-01-12T18:21:15.382Z,1.10
2023-01-12T18:23:43.609Z,1.30
2023-01-12T18:26:19.293Z,1.20
2023-01-12T18:28:46.752Z,1.37
2023-01-12T18:31:15.321Z,1.10
2023-01-12T18:33:43.127Z,1.30
2023-01-12T18:36:11.890Z,1.30
2023-01-12T18:38:41.370Z,1.20
2023-01-12T18:41:28.613Z,1.30
2023-01-12T18:43:56.556Z,1.20
2023-01-12T18:46:44.031Z,1.60
2023-01-12T18:49:11.330Z,1.40
2023-01-12T18:51:57.132Z,1.20
2023-01-12T18:54:25.514Z,1.20
2023-01-12T18:56:52.867Z,1.10
2023-01-12T18:59:21.250Z,1.10
2023-01-12T19:01:48.592Z,1.30
2023-01-12T19:04:23.502Z,8.60
2023-01-12T19:06:58.277Z,7.10
2023-01-12T19:09:35.061Z,10.97
2023-01-12T19:12:06.336Z,13.83
2023-01-12T19:14:52.793Z,13.60
2023-01-12T19:17:33.112Z,5.63
2023-01-12T19:20:01.752Z,2.40
2023-01-12T19:22:47.724Z,4.10
2023-01-12T19:25:35.281Z,1.27
2023-01-12T19:28:22.186Z,2.80
2023-01-12T19:30:49.581Z,2.00
2023-01-12T19:33:18.597Z,1.53
2023-01-12T19:35:46.934Z,2.90
2023-01-12T19:38:14.871Z,4.50
2023-01-12T19:41:07.127Z,2.30
2023-01-12T19:43:35.113Z,1.97
2023-01-12T19:46:02.797Z,1.70
2023-01-12T19:48:32.610Z,1.30
2023-01-12T19:51:05.965Z,2.33
2023-01-12T19:53:33.923Z,1.50
2023-01-12T19:56:01.849Z,1.97
2023-01-12T19:58:29.151Z,1.33
2023-01-12T20:00:56.564Z,1.70
2023-01-12T20:03:25.275Z,2.00
2023-01-12T20:05:53.614Z,1.77
2023-01-12T20:08:22.497Z,2.00
2023-01-12T20:10:57.999Z,5.77
2023-01-12T20:13:25.328Z,1.20
2023-01-12T20:15:54.243Z,1.33
2023-01-12T20:18:21.636Z,1.30
2023-01-12T20:20:51.039Z,1.13
2023-01-12T20:23:20.099Z,2.30
2023-01-12T20:25:47.389Z,1.50
2023-01-12T20:28:14.876Z,1.53
2023-01-12T20:30:43.058Z,2.03
2023-01-12T20:33:10.451Z,2.00
2023-01-12T20:35:41.122Z,2.07
2023-01-12T20:38:13.370Z,1.90
2023-01-12T20:40:41.382Z,1.33
2023-01-12T20:43:08.783Z,1.00
2023-01-12T20:45:36.113Z,1.70
2023-01-12T20:48:04.666Z,1.20
2023-01-12T20:50:32.151Z,1.30
2023-01-12T20:52:59.540Z,1.37
2023-01-12T20:55:26.824Z,1.60
2023-01-12T20:57:54.443Z,1.20
2023-01-12T21:00:21.948Z,1.17
2023-01-12T21:02:49.411Z,1.20
2023-01-12T21:05:16.722Z,1.47
2023-01-12T21:07:48.699Z,1.33
2023-01-12T21:10:17.665Z,1.10
2023-01-12T21:12:46.338Z,1.23
2023-01-12T21:15:13.632Z,1.30
2023-01-12T21:17:41.850Z,1.30
2023-01-12T21:20:10.239Z,1.13
2023-01-12T21:22:37.945Z,1.00
2023-01-12T21:25:05.680Z,1.20
2023-01-12T21:27:32.906Z,1.10
2023-01-12T21:30:00.638Z,1.20
2023-01-12T21:32:29.215Z,1.20
2023-01-12T21:34:56.469Z,1.30
2023-01-12T21:37:23.714Z,1.30
2023-01-12T21:39:51.060Z,1.10
2023-01-12T21:42:37.474Z,1.10
2023-01-12T21:45:05.196Z,1.00
2023-01-12T21:47:32.755Z,1.30
2023-01-12T21:50:00.351Z,1.13
2023-01-12T21:52:32.932Z,1.00
2023-01-12T21:55:00.570Z,1.20
2023-01-12T21:57:28.080Z,1.07
2023-01-12T21:59:55.365Z,1.40
2023-01-12T22:02:22.720Z,1.43
2023-01-12T22:04:50.137Z,1.40
2023-01-12T22:07:17.498Z,1.30
2023-01-12T22:09:44.890Z,1.37
2023-01-12T22:12:12.177Z,1.10
2023-01-12T22:14:43.224Z,1.13
2023-01-12T22:17:10.529Z,1.30
2023-01-12T22:19:39.499Z,1.13
2023-01-12T22:22:07.058Z,1.10
2023-01-12T22:24:34.330Z,1.40
2023-01-12T22:27:03.422Z,1.10
2023-01-12T22:29:30.668Z,1.30
2023-01-12T22:31:58.025Z,1.20
2023-01-12T22:34:25.999Z,1.20
2023-01-12T22:36:53.351Z,1.10
2023-01-12T22:39:20.645Z,1.23
2023-01-12T22:41:50.584Z,1.23
2023-01-12T22:44:17.828Z,1.20
2023-01-12T22:46:45.128Z,1.07
2023-01-12T22:49:12.451Z,1.10
2023-01-12T22:51:39.679Z,1.30
2023-01-12T22:54:07.108Z,1.33
2023-01-12T22:56:34.356Z,1.20
2023-01-12T22:59:02.238Z,1.00
2023-01-12T23:01:30.075Z,0.97
2023-01-12T23:03:58.539Z,1.20
2023-01-12T23:06:26.560Z,1.10
2023-01-12T23:08:53.818Z,1.00
2023-01-12T23:11:22.680Z,1.00
2023-01-12T23:13:50.397Z,1.00
2023-01-12T23:16:18.303Z,1.20
2023-01-12T23:18:46.400Z,1.03
2023-01-12T23:21:18.478Z,1.20
2023-01-12T23:23:49.960Z,1.10
2023-01-12T23:26:20.390Z,1.00
2023-01-12T23:28:50.714Z,1.07
2023-01-12T23:31:22.206Z,1.10
2023-01-12T23:33:50.020Z,1.17
2023-01-12T23:36:18.875Z,1.10
2023-01-12T23:38:46.291Z,1.00
2023-01-12T23:41:13.618Z,1.07
2023-01-12T23:43:41.161Z,1.30
2023-01-12T23:46:08.599Z,1.33
2023-01-12T23:48:36.167Z,1.00
2023-01-12T23:51:03.843Z,1.30
2023-01-12T23:53:31.438Z,1.10
2023-01-12T23:56:03.370Z,1.20
2023-01-12T23:58:31.943Z,1.20
